createdAt,value
2019-03-04T00:02:26.530Z,4.07
2019-03-04T00:04:52.782Z,3.73
2019-03-04T00:07:22.154Z,3.90
2019-03-04T00:09:48.455Z,3.93
2019-03-04T00:12:14.697Z,4.30
2019-03-04T00:14:42.979Z,3.50
2019-03-04T00:17:09.448Z,3.63
2019-03-04T00:19:35.742Z,3.50
2019-03-04T00:22:05.870Z,4.30
2019-03-04T00:24:32.364Z,3.97
2019-03-04T00:26:58.646Z,3.70
2019-03-04T00:29:24.792Z,3.67
2019-03-04T00:31:51.068Z,3.67
2019-03-04T00:34:24.069Z,3.63
2019-03-04T00:36:50.492Z,3.80
2019-03-04T00:39:16.584Z,4.00
2019-03-04T00:41:42.818Z,3.60
2019-03-04T00:44:08.990Z,3.83
2019-03-04T00:46:35.186Z,3.90
2019-03-04T00:49:03.979Z,3.43
2019-03-04T00:51:30.286Z,3.80
2019-03-04T00:53:56.402Z,3.80
2019-03-04T00:56:22.609Z,4.00
2019-03-04T00:58:48.776Z,4.50
2019-03-04T01:01:15.096Z,3.83
2019-03-04T01:03:41.214Z,3.70
2019-03-04T01:06:07.424Z,3.97
2019-03-04T01:08:33.809Z,3.80
2019-03-04T01:11:00.138Z,4.07
2019-03-04T01:13:31.753Z,4.10
2019-03-04T01:15:57.973Z,3.97
2019-03-04T01:18:25.396Z,4.27
2019-03-04T01:20:51.820Z,3.87
2019-03-04T01:23:18.027Z,4.30
2019-03-04T01:25:44.390Z,3.60
2019-03-04T01:28:10.569Z,4.30
2019-03-04T01:30:36.902Z,3.90
2019-03-04T01:33:03.258Z,4.07
2019-03-04T01:35:29.409Z,3.70
2019-03-04T01:37:55.626Z,3.83
2019-03-04T01:40:22.400Z,3.60
2019-03-04T01:42:48.541Z,4.10
2019-03-04T01:45:15.883Z,4.17
2019-03-04T01:47:42.344Z,4.10
2019-03-04T01:50:13.190Z,4.00
2019-03-04T01:52:39.572Z,4.30
2019-03-04T01:55:07.778Z,3.90
2019-03-04T01:57:34.161Z,4.17
2019-03-04T02:00:00.375Z,3.80
2019-03-04T02:02:26.543Z,4.20
2019-03-04T02:04:52.769Z,4.30
2019-03-04T02:07:19.620Z,4.60
2019-03-04T02:09:45.823Z,4.07
2019-03-04T02:12:12.041Z,4.27
2019-03-04T02:14:38.174Z,4.07
2019-03-04T02:17:04.350Z,3.87
2019-03-04T02:19:30.704Z,3.73
2019-03-04T02:21:57.107Z,3.90
2019-03-04T02:24:24.232Z,4.20
2019-03-04T02:26:51.582Z,4.03
2019-03-04T02:29:18.760Z,4.23
2019-03-04T02:31:45.095Z,4.10
2019-03-04T02:34:11.381Z,3.90
2019-03-04T02:36:37.677Z,3.70
2019-03-04T02:39:04.827Z,3.73
2019-03-04T02:41:32.926Z,3.70
2019-03-04T02:43:59.169Z,3.57
2019-03-04T02:46:25.547Z,3.57
2019-03-04T02:48:51.890Z,3.80
2019-03-04T02:51:18.224Z,3.37
2019-03-04T02:53:44.588Z,3.53
2019-03-04T02:56:11.477Z,3.20
2019-03-04T02:58:37.697Z,3.00
2019-03-04T03:01:04.170Z,3.20
2019-03-04T03:03:30.387Z,3.30
2019-03-04T03:05:56.685Z,3.13
2019-03-04T03:08:22.817Z,3.20
2019-03-04T03:10:49.188Z,3.30
2019-03-04T03:13:15.469Z,3.10
2019-03-04T03:15:41.600Z,3.47
2019-03-04T03:18:08.006Z,2.73
2019-03-04T03:20:34.307Z,2.83
2019-03-04T03:23:00.607Z,2.83
2019-03-04T03:25:26.755Z,2.93
2019-03-04T03:27:52.910Z,3.00
2019-03-04T03:30:20.460Z,2.90
2019-03-04T03:32:46.741Z,2.63
2019-03-04T03:35:13.025Z,2.83
2019-03-04T03:37:39.318Z,2.77
2019-03-04T03:40:12.390Z,2.63
2019-03-04T03:42:38.695Z,2.70
2019-03-04T03:45:06.899Z,2.57
2019-03-04T03:47:33.050Z,2.53
2019-03-04T03:49:59.241Z,2.63
2019-03-04T03:52:25.450Z,2.70
2019-03-04T03:54:51.801Z,2.63
2019-03-04T03:57:18.092Z,2.77
2019-03-04T03:59:44.397Z,2.47
2019-03-04T04:02:10.610Z,2.37
2019-03-04T04:04:36.886Z,2.50
2019-03-04T04:07:03.002Z,2.40
2019-03-04T04:09:29.629Z,2.63
2019-03-04T04:11:55.768Z,2.37
2019-03-04T04:14:22.153Z,2.10
2019-03-04T04:16:48.328Z,2.10
2019-03-04T04:19:14.542Z,2.00
2019-03-04T04:21:40.658Z,2.10
2019-03-04T04:24:06.795Z,2.13
2019-03-04T04:26:33.040Z,2.10
2019-03-04T04:29:01.107Z,2.20
2019-03-04T04:31:27.512Z,2.23
2019-03-04T04:33:53.781Z,2.30
2019-03-04T04:36:19.892Z,2.30
2019-03-04T04:38:46.102Z,2.50
2019-03-04T04:41:12.533Z,2.40
2019-03-04T04:43:38.639Z,2.40
2019-03-04T04:46:04.927Z,2.47
2019-03-04T04:48:31.146Z,2.37
2019-03-04T04:50:57.232Z,2.30
2019-03-04T04:53:23.342Z,2.13
2019-03-04T04:55:49.552Z,2.43
2019-03-04T04:58:15.672Z,2.00
2019-03-04T05:00:41.928Z,2.57
2019-03-04T05:03:08.145Z,2.40
2019-03-04T05:05:34.343Z,2.53
2019-03-04T05:08:00.420Z,2.40
2019-03-04T05:10:26.661Z,2.10
2019-03-04T05:12:52.865Z,2.40
2019-03-04T05:15:19.365Z,2.57
2019-03-04T05:17:45.785Z,2.40
2019-03-04T05:20:17.863Z,2.67
2019-03-04T05:22:44.034Z,2.37
2019-03-04T05:25:10.353Z,2.17
2019-03-04T05:27:36.448Z,2.60
2019-03-04T05:30:05.551Z,2.10
2019-03-04T05:32:32.911Z,2.30
2019-03-04T05:34:59.099Z,2.23
2019-03-04T05:37:25.249Z,2.10
2019-03-04T05:39:51.587Z,2.10
2019-03-04T05:42:17.858Z,1.80
2019-03-04T05:44:44.031Z,1.83
2019-03-04T05:47:10.238Z,1.70
2019-03-04T05:49:36.535Z,1.77
2019-03-04T05:52:02.893Z,1.60
2019-03-04T05:54:28.969Z,1.70
2019-03-04T05:56:55.119Z,1.80
2019-03-04T05:59:21.204Z,1.43
2019-03-04T06:01:51.105Z,1.50
2019-03-04T06:04:17.426Z,1.47
2019-03-04T06:06:45.715Z,1.80
2019-03-04T06:09:12.862Z,1.70
2019-03-04T06:11:39.116Z,1.10
2019-03-04T06:14:06.425Z,1.60
2019-03-04T06:16:32.735Z,2.03
2019-03-04T06:18:58.950Z,1.67
2019-03-04T06:21:25.168Z,1.50
2019-03-04T06:23:51.341Z,1.40
2019-03-04T06:26:17.743Z,1.60
2019-03-04T06:28:43.952Z,1.80
2019-03-04T06:31:10.110Z,1.70
2019-03-04T06:33:36.331Z,1.53
2019-03-04T06:36:02.674Z,1.60
2019-03-04T06:38:30.019Z,1.60
2019-03-04T06:40:56.365Z,1.90
2019-03-04T06:43:22.600Z,1.20
2019-03-04T06:45:48.703Z,1.80
2019-03-04T06:48:15.021Z,1.80
2019-03-04T06:50:46.880Z,1.80
2019-03-04T06:53:26.107Z,1.67
2019-03-04T06:55:59.029Z,1.90
2019-03-04T06:58:25.129Z,1.53
2019-03-04T07:00:52.526Z,2.00
2019-03-04T07:03:19.839Z,1.97
2019-03-04T07:05:47.640Z,2.03
2019-03-04T07:08:35.171Z,1.80
2019-03-04T07:11:01.279Z,2.10
2019-03-04T07:13:27.619Z,2.30
2019-03-04T07:15:53.970Z,1.97
2019-03-04T07:18:20.053Z,1.67
2019-03-04T07:20:46.306Z,1.50
2019-03-04T07:23:12.540Z,1.57
2019-03-04T07:25:38.822Z,1.37
2019-03-04T07:28:04.921Z,1.10
2019-03-04T07:30:31.001Z,1.30
2019-03-04T07:32:57.332Z,1.10
2019-03-04T07:35:23.621Z,1.40
2019-03-04T07:37:59.752Z,1.10
2019-03-04T07:40:25.915Z,1.60
2019-03-04T07:42:52.318Z,1.30
2019-03-04T07:45:18.528Z,1.40
2019-03-04T07:47:44.640Z,1.37
2019-03-04T07:50:11.088Z,1.50
2019-03-04T07:52:37.465Z,1.00
2019-03-04T07:55:05.487Z,1.23
2019-03-04T07:57:31.865Z,1.50
2019-03-04T07:59:58.702Z,1.40
2019-03-04T08:02:25.168Z,1.17
2019-03-04T08:04:51.308Z,1.00
2019-03-04T08:07:44.539Z,1.30
2019-03-04T08:10:36.705Z,1.23
2019-03-04T08:13:06.539Z,1.37
2019-03-04T08:15:35.140Z,1.37
2019-03-04T08:18:12.318Z,1.20
2019-03-04T08:20:38.615Z,1.67
2019-03-04T08:23:16.420Z,1.10
2019-03-04T08:25:42.802Z,1.20
2019-03-04T08:28:12.457Z,1.60
2019-03-04T08:30:39.934Z,1.47
2019-03-04T08:33:12.304Z,1.30
2019-03-04T08:35:38.761Z,1.03
2019-03-04T08:38:08.737Z,1.33
2019-03-04T08:40:34.954Z,1.30
2019-03-04T08:43:06.000Z,1.57
2019-03-04T08:45:32.319Z,1.67
2019-03-04T08:48:00.449Z,1.70
2019-03-04T08:50:28.063Z,1.50
2019-03-04T08:52:54.181Z,1.40
2019-03-04T08:55:20.652Z,1.40
2019-03-04T08:57:46.956Z,1.10
2019-03-04T09:00:21.654Z,1.40
2019-03-04T09:02:49.085Z,1.87
2019-03-04T09:05:15.602Z,1.90
2019-03-04T09:07:42.039Z,1.80
2019-03-04T09:10:20.019Z,1.60
2019-03-04T09:12:57.747Z,2.10
2019-03-04T09:15:24.239Z,1.93
2019-03-04T09:17:50.559Z,1.60
2019-03-04T09:20:17.550Z,1.80
2019-03-04T09:22:45.070Z,1.40
2019-03-04T09:25:30.372Z,1.97
2019-03-04T09:27:54.082Z,1.80
2019-03-04T09:30:20.809Z,2.00
2019-03-04T09:32:48.216Z,2.20
2019-03-04T09:35:19.806Z,1.80
2019-03-04T09:37:46.223Z,1.60
2019-03-04T09:40:19.842Z,1.60
2019-03-04T09:42:49.875Z,1.73
2019-03-04T09:45:16.178Z,1.63
2019-03-04T09:47:42.535Z,1.97
2019-03-04T09:50:33.206Z,1.83
2019-03-04T09:53:00.313Z,1.97
2019-03-04T09:55:37.547Z,1.30
2019-03-04T09:58:10.690Z,1.47
2019-03-04T10:00:51.410Z,1.70
2019-03-04T10:03:39.835Z,1.40
2019-03-04T10:06:15.612Z,1.47
2019-03-04T10:09:11.128Z,1.60
2019-03-04T10:11:50.580Z,1.70
2019-03-04T10:14:35.807Z,1.80
2019-03-04T10:17:40.769Z,1.93
2019-03-04T10:20:28.892Z,1.37
2019-03-04T10:23:07.692Z,1.70
2019-03-04T10:25:54.532Z,2.10
2019-03-04T10:28:41.248Z,1.63
2019-03-04T10:31:32.115Z,2.00
2019-03-04T10:34:18.668Z,1.90
2019-03-04T10:37:05.101Z,2.30
2019-03-04T10:39:50.251Z,1.67
2019-03-04T10:42:48.000Z,1.57
2019-03-04T10:45:33.205Z,1.80
2019-03-04T10:47:59.583Z,1.80
2019-03-04T10:50:25.917Z,1.63
2019-03-04T10:52:52.277Z,1.90
2019-03-04T10:55:18.669Z,2.00
2019-03-04T10:57:44.931Z,2.27
2019-03-04T11:00:14.448Z,2.50
2019-03-04T11:02:40.779Z,2.50
2019-03-04T11:05:07.245Z,2.53
2019-03-04T11:07:33.626Z,2.53
2019-03-04T11:10:00.283Z,2.70
2019-03-04T11:12:26.515Z,3.43
2019-03-04T11:14:52.877Z,2.47
2019-03-04T11:17:19.247Z,3.00
2019-03-04T11:19:45.708Z,2.90
2019-03-04T11:22:12.137Z,2.33
2019-03-04T11:24:38.375Z,2.37
2019-03-04T11:27:04.829Z,3.03
2019-03-04T11:29:31.116Z,2.50
2019-03-04T11:31:57.575Z,2.37
2019-03-04T11:34:23.948Z,2.70
2019-03-04T11:36:50.260Z,2.60
2019-03-04T11:39:24.229Z,2.80
2019-03-04T11:41:50.435Z,2.33
2019-03-04T11:44:16.598Z,2.60
2019-03-04T11:46:43.107Z,2.53
2019-03-04T11:49:09.452Z,2.43
2019-03-04T11:51:36.167Z,2.97
2019-03-04T11:54:02.914Z,3.20
2019-03-04T11:56:29.519Z,3.20
2019-03-04T11:58:57.069Z,2.63
2019-03-04T12:01:28.145Z,3.50
2019-03-04T12:03:54.391Z,3.00
2019-03-04T12:06:20.637Z,2.57
2019-03-04T12:08:46.913Z,3.50
2019-03-04T12:11:13.116Z,1.67
2019-03-04T12:13:39.341Z,1.90
2019-03-04T12:16:05.656Z,1.50
2019-03-04T12:18:33.306Z,1.50
2019-03-04T12:20:59.838Z,1.50
2019-03-04T12:23:26.291Z,1.50
2019-03-04T12:25:52.844Z,1.40
2019-03-04T12:28:20.299Z,1.50
2019-03-04T12:30:46.655Z,1.80
2019-03-04T12:33:13.137Z,1.40
2019-03-04T12:35:39.413Z,1.30
2019-03-04T12:38:05.842Z,1.10
2019-03-04T12:40:32.168Z,1.23
2019-03-04T12:43:00.579Z,1.30
2019-03-04T12:45:34.065Z,1.13
2019-03-04T12:47:54.983Z,1.23
2019-03-04T12:50:27.403Z,1.23
2019-03-04T12:52:54.556Z,1.30
2019-03-04T12:55:20.863Z,1.30
2019-03-04T12:57:47.122Z,1.70
2019-03-04T13:00:19.175Z,1.60
2019-03-04T13:02:45.484Z,1.80
2019-03-04T13:05:12.632Z,2.13
2019-03-04T13:07:39.013Z,2.00
2019-03-04T13:10:08.848Z,2.17
2019-03-04T13:12:35.196Z,2.50
2019-03-04T13:15:02.080Z,3.07
2019-03-04T13:17:28.338Z,2.73
2019-03-04T13:19:54.650Z,2.87
2019-03-04T13:22:20.950Z,2.70
2019-03-04T13:24:47.312Z,2.87
2019-03-04T13:27:13.485Z,2.70
2019-03-04T13:29:41.744Z,2.67
2019-03-04T13:32:08.180Z,2.53
2019-03-04T13:34:34.437Z,2.70
2019-03-04T13:37:00.661Z,2.27
2019-03-04T13:39:26.871Z,2.30
2019-03-04T13:41:53.187Z,2.67
2019-03-04T13:44:19.336Z,2.87
2019-03-04T13:46:45.698Z,2.60
2019-03-04T13:49:11.981Z,2.60
2019-03-04T13:51:38.746Z,2.50
2019-03-04T13:54:05.114Z,2.70
2019-03-04T13:56:31.429Z,2.70
2019-03-04T13:58:57.722Z,2.60
2019-03-04T14:01:24.622Z,2.53
2019-03-04T14:03:50.993Z,2.83
2019-03-04T14:06:17.347Z,3.27
2019-03-04T14:08:43.648Z,3.13
2019-03-04T14:11:10.105Z,3.77
2019-03-04T14:13:36.219Z,3.70
2019-03-04T14:16:03.171Z,3.70
2019-03-04T14:18:29.491Z,3.80
2019-03-04T14:20:55.929Z,3.67
2019-03-04T14:23:22.363Z,4.10
2019-03-04T14:25:49.869Z,3.37
2019-03-04T14:28:16.217Z,3.90
2019-03-04T14:30:42.528Z,3.37
2019-03-04T14:33:08.861Z,3.93
2019-03-04T14:35:35.025Z,3.27
2019-03-04T14:38:01.228Z,3.60
2019-03-04T14:40:27.567Z,3.50
2019-03-04T14:42:55.177Z,3.20
2019-03-04T14:45:25.922Z,3.20
2019-03-04T14:47:52.066Z,2.87
2019-03-04T14:50:19.725Z,3.30
2019-03-04T14:52:46.048Z,2.90
2019-03-04T14:55:19.839Z,2.43
2019-03-04T14:57:46.261Z,2.60
2019-03-04T15:00:16.087Z,3.00
2019-03-04T15:02:42.760Z,2.70
2019-03-04T15:05:10.173Z,2.87
2019-03-04T15:07:36.655Z,2.97
2019-03-04T15:10:06.723Z,3.40
2019-03-04T15:12:34.252Z,3.03
2019-03-04T15:15:00.679Z,3.07
2019-03-04T15:17:27.822Z,2.80
2019-03-04T15:19:54.138Z,2.93
2019-03-04T15:22:20.352Z,2.90
2019-03-04T15:24:46.447Z,3.20
2019-03-04T15:27:12.805Z,3.20
2019-03-04T15:29:39.166Z,3.60
2019-03-04T15:32:05.665Z,3.27
2019-03-04T15:34:31.790Z,2.70
2019-03-04T15:36:58.049Z,3.20
2019-03-04T15:39:24.263Z,3.13
2019-03-04T15:41:50.532Z,2.90
2019-03-04T15:44:16.772Z,3.40
2019-03-04T15:46:43.053Z,2.70
2019-03-04T15:49:09.398Z,2.70
2019-03-04T15:51:35.673Z,3.17
2019-03-04T15:54:02.118Z,2.23
2019-03-04T15:56:28.446Z,2.83
2019-03-04T15:58:54.701Z,2.30
2019-03-04T16:01:21.201Z,2.80
2019-03-04T16:03:47.491Z,2.60
2019-03-04T16:06:13.906Z,3.20
2019-03-04T16:08:40.286Z,2.70
2019-03-04T16:11:10.489Z,3.17
2019-03-04T16:13:36.786Z,2.67
2019-03-04T16:16:06.078Z,3.20
2019-03-04T16:18:32.421Z,3.30
2019-03-04T16:20:58.742Z,3.00
2019-03-04T16:23:25.399Z,3.37
2019-03-04T16:25:52.127Z,3.17
2019-03-04T16:28:24.440Z,3.70
2019-03-04T16:30:55.847Z,2.97
2019-03-04T16:33:23.182Z,3.23
2019-03-04T16:35:49.392Z,3.17
2019-03-04T16:38:16.819Z,3.10
2019-03-04T16:40:43.178Z,3.80
2019-03-04T16:43:09.491Z,3.20
2019-03-04T16:45:35.771Z,2.97
2019-03-04T16:48:07.894Z,3.50
2019-03-04T16:50:37.020Z,3.47
2019-03-04T16:53:12.493Z,3.50
2019-03-04T16:55:46.057Z,3.37
2019-03-04T16:58:15.372Z,3.50
2019-03-04T17:00:41.978Z,3.50
2019-03-04T17:03:09.406Z,3.07
2019-03-04T17:05:38.229Z,3.60
2019-03-04T17:10:51.794Z,3.80
2019-03-04T17:13:18.235Z,3.50
2019-03-04T17:15:44.580Z,3.50
2019-03-04T17:18:10.759Z,3.30
2019-03-04T17:20:37.096Z,3.37
2019-03-04T17:23:12.550Z,3.87
2019-03-04T17:25:45.458Z,3.90
2019-03-04T17:28:24.139Z,4.37
2019-03-04T17:30:50.738Z,3.37
2019-03-04T17:33:17.179Z,3.77
2019-03-04T17:35:50.168Z,3.27
2019-03-04T17:38:17.321Z,3.47
2019-03-04T17:40:44.976Z,3.67
2019-03-04T17:43:11.279Z,3.50
2019-03-04T17:45:37.754Z,3.40
2019-03-04T17:48:04.285Z,3.13
2019-03-04T17:50:35.765Z,3.53
2019-03-04T17:53:04.490Z,3.83
2019-03-04T17:55:30.927Z,3.53
2019-03-04T17:57:57.274Z,3.20
2019-03-04T18:00:23.667Z,3.07
2019-03-04T18:02:50.166Z,3.20
2019-03-04T18:05:16.575Z,3.00
2019-03-04T18:07:42.965Z,2.13
2019-03-04T18:10:13.055Z,2.60
2019-03-04T18:12:39.409Z,2.90
2019-03-04T18:15:09.406Z,2.50
2019-03-04T18:17:35.852Z,3.00
2019-03-04T18:20:04.817Z,2.70
2019-03-04T18:22:31.959Z,2.77
2019-03-04T18:24:58.191Z,2.73
2019-03-04T18:27:24.509Z,2.30
2019-03-04T18:29:57.176Z,2.87
2019-03-04T18:32:30.123Z,2.57
2019-03-04T18:35:24.031Z,3.10
2019-03-04T18:38:09.138Z,3.00
2019-03-04T18:40:55.955Z,2.80
2019-03-04T18:43:26.012Z,3.07
2019-03-04T18:46:17.064Z,2.73
2019-03-04T18:48:54.025Z,3.10
2019-03-04T18:51:20.412Z,2.70
2019-03-04T18:53:46.842Z,3.07
2019-03-04T18:56:21.702Z,3.27
2019-03-04T18:58:41.366Z,3.07
2019-03-04T19:01:07.856Z,2.70
2019-03-04T19:03:35.079Z,2.80
2019-03-04T19:06:02.052Z,3.00
2019-03-04T19:08:28.438Z,3.03
2019-03-04T19:10:54.803Z,3.27
2019-03-04T19:13:21.235Z,3.20
2019-03-04T19:15:47.611Z,3.30
2019-03-04T19:18:14.092Z,3.67
2019-03-04T19:20:40.620Z,3.47
2019-03-04T19:23:07.060Z,3.13
2019-03-04T19:25:33.296Z,3.17
2019-03-04T19:28:00.841Z,4.10
2019-03-04T19:30:27.350Z,3.13
2019-03-04T19:32:53.805Z,3.63
2019-03-04T19:35:21.515Z,3.30
2019-03-04T19:37:47.917Z,3.63
2019-03-04T19:40:15.367Z,3.40
2019-03-04T19:42:41.808Z,3.40
2019-03-04T19:45:20.202Z,3.60
2019-03-04T19:47:46.903Z,3.27
2019-03-04T19:50:14.342Z,3.37
2019-03-04T19:52:40.758Z,3.10
2019-03-04T19:55:12.616Z,3.17
2019-03-04T19:57:39.624Z,3.50
2019-03-04T20:00:09.721Z,3.60
2019-03-04T20:02:36.352Z,3.40
2019-03-04T20:05:04.490Z,3.33
2019-03-04T20:07:33.107Z,3.63
2019-03-04T20:09:59.617Z,3.50
2019-03-04T20:12:27.963Z,3.70
2019-03-04T20:14:54.203Z,3.10
2019-03-04T20:17:20.424Z,4.03
2019-03-04T20:19:46.901Z,3.77
2019-03-04T20:22:13.654Z,3.30
2019-03-04T20:24:41.114Z,3.60
2019-03-04T20:27:07.587Z,3.33
2019-03-04T20:29:33.920Z,3.90
2019-03-04T20:32:00.168Z,3.80
2019-03-04T20:34:26.756Z,3.37
2019-03-04T20:36:53.101Z,3.80
2019-03-04T20:39:20.014Z,3.50
2019-03-04T20:41:46.454Z,3.57
2019-03-04T20:44:13.344Z,3.77
2019-03-04T20:46:40.079Z,3.03
2019-03-04T20:49:09.456Z,2.77
2019-03-04T20:51:35.832Z,2.90
2019-03-04T20:54:02.738Z,3.20
2019-03-04T20:56:30.862Z,2.67
2019-03-04T20:58:57.425Z,2.97
2019-03-04T21:01:23.872Z,3.17
2019-03-04T21:03:50.393Z,3.13
2019-03-04T21:06:16.875Z,2.80
2019-03-04T21:08:43.363Z,3.00
2019-03-04T21:11:10.826Z,3.13
2019-03-04T21:13:37.240Z,3.00
2019-03-04T21:16:04.050Z,3.10
2019-03-04T21:18:30.493Z,2.93
2019-03-04T21:20:58.121Z,2.47
2019-03-04T21:23:24.568Z,2.73
2019-03-04T21:25:57.462Z,2.90
2019-03-04T21:28:33.563Z,3.00
2019-03-04T21:31:37.484Z,2.60
2019-03-04T21:34:07.458Z,2.80
2019-03-04T21:37:03.324Z,3.10
2019-03-04T21:39:50.285Z,3.37
2019-03-04T21:42:26.625Z,2.90
2019-03-04T21:45:00.147Z,2.67
2019-03-04T21:47:30.406Z,3.50
2019-03-04T21:49:56.783Z,2.80
2019-03-04T21:52:29.952Z,2.80
2019-03-04T21:54:56.404Z,3.13
2019-03-04T21:57:26.344Z,3.57
2019-03-04T21:59:52.736Z,2.83
2019-03-04T22:02:22.663Z,2.70
2019-03-04T22:04:49.086Z,3.03
2019-03-04T22:07:15.519Z,3.00
2019-03-04T22:09:41.940Z,3.00
2019-03-04T22:12:12.766Z,3.17
2019-03-04T22:14:39.150Z,3.73
2019-03-04T22:17:05.479Z,3.03
2019-03-04T22:19:32.907Z,3.33
2019-03-04T22:21:59.256Z,3.00
2019-03-04T22:24:25.609Z,3.33
2019-03-04T22:26:51.927Z,2.53
2019-03-04T22:29:18.298Z,3.00
2019-03-04T22:31:44.586Z,3.20
2019-03-04T22:34:10.896Z,3.50
2019-03-04T22:36:37.087Z,3.40
2019-03-04T22:39:05.494Z,3.20
2019-03-04T22:41:33.643Z,3.60
2019-03-04T22:43:59.941Z,5.00
2019-03-04T22:46:26.266Z,5.67
2019-03-04T22:48:52.567Z,6.17
2019-03-04T22:51:18.850Z,7.17
2019-03-04T22:53:45.149Z,7.20
2019-03-04T22:56:11.502Z,7.33
2019-03-04T22:58:37.812Z,6.37
2019-03-04T23:01:09.604Z,6.57
2019-03-04T23:03:36.841Z,6.90
2019-03-04T23:06:09.921Z,7.50
2019-03-04T23:08:36.249Z,7.30
2019-03-04T23:11:02.690Z,8.40
2019-03-04T23:13:52.662Z,9.13
2019-03-04T23:16:21.611Z,8.43
2019-03-04T23:18:47.708Z,9.20
2019-03-04T23:21:17.070Z,9.73
2019-03-04T23:23:43.165Z,10.93
2019-03-04T23:26:10.451Z,11.10
2019-03-04T23:28:36.669Z,10.23
2019-03-04T23:31:03.012Z,11.63
2019-03-04T23:33:29.455Z,13.13
2019-03-04T23:35:55.770Z,13.80
2019-03-04T23:38:22.103Z,14.07
2019-03-04T23:40:49.424Z,13.67
2019-03-04T23:43:15.769Z,14.37
2019-03-04T23:45:41.966Z,13.73
2019-03-04T23:48:08.288Z,13.37
2019-03-04T23:50:34.424Z,15.10
2019-03-04T23:53:00.672Z,13.70
2019-03-04T23:55:26.984Z,16.43
2019-03-04T23:57:53.178Z,13.13
